Time;durP1;ratioP1;P1;durP2;ratioP2;P2;SDS_P1;SDS_P2;PMS_P1;PMS_P2;Temp;Humidity;BMP_temperature;BMP_pressure;BME280_temperature;BME280_humidity;BME280_pressure;Samples;Min_cycle;Max_cycle;Signal;HPM_P1;HPM_P2
2023/05/25 00:43:04;;;;;;;7.80;3.70;;;;;;;12.11;51.77;97048.75;5106104;23;20057;-77
2023/05/25 00:45:32;;;;;;;9.55;4.57;;;;;;;12.12;51.67;97047.78;4881029;29;20109;-76
2023/05/25 00:48:00;;;;;;;7.63;3.45;;;;;;;12.13;52.00;97049.38;4881426;29;20109;-77
2023/05/25 00:50:37;;;;;;;8.18;3.80;;;;;;;12.20;51.73;97052.94;4881219;29;20105;-77
2023/05/25 00:53:05;;;;;;;11.10;4.15;;;;;;;12.21;51.47;97051.91;4880978;29;20505;-74
2023/05/25 00:55:36;;;;;;;7.47;3.78;;;;;;;12.19;51.71;97042.63;4880947;29;20145;-74
2023/05/25 00:58:07;;;;;;;8.95;3.40;;;;;;;12.20;51.62;97039.00;4881132;29;20048;-73
2023/05/25 01:00:37;;;;;;;8.60;4.18;;;;;;;12.22;52.18;97037.84;4881248;29;20095;-73
2023/05/25 01:03:11;;;;;;;8.27;3.55;;;;;;;12.24;51.35;97041.09;4881052;29;20108;-74
2023/05/25 01:05:43;;;;;;;4.90;3.03;;;;;;;12.20;52.01;97041.63;4880929;29;20093;-74
2023/05/25 01:08:13;;;;;;;10.48;4.03;;;;;;;12.17;51.73;97040.19;4880982;29;20096;-74
2023/05/25 01:10:42;;;;;;;9.95;4.05;;;;;;;12.14;51.89;97032.72;4880878;29;20056;-76
2023/05/25 01:13:14;;;;;;;7.68;3.92;;;;;;;12.13;52.01;97044.16;4880958;29;20576;-76
2023/05/25 01:15:42;;;;;;;8.55;3.95;;;;;;;12.11;52.25;97046.97;4880879;29;20168;-76
2023/05/25 01:18:13;;;;;;;8.38;3.60;;;;;;;12.11;51.99;97046.97;4881197;29;20188;-76
2023/05/25 01:20:53;;;;;;;10.85;4.45;;;;;;;12.05;52.62;97042.47;4880926;29;20498;-76
2023/05/25 01:23:28;;;;;;;10.13;4.72;;;;;;;12.02;52.90;97040.19;4890482;29;20057;-76
2023/05/25 01:26:01;;;;;;;9.85;4.60;;;;;;;12.04;52.59;97042.63;4894836;29;20087;-76
2023/05/25 01:28:34;;;;;;;10.55;4.43;;;;;;;12.05;52.75;97039.84;4895589;29;20053;-76
2023/05/25 01:31:03;;;;;;;7.93;3.97;;;;;;;12.08;52.77;97046.50;4891459;29;20053;-76
2023/05/25 01:33:31;;;;;;;12.57;4.07;;;;;;;12.07;52.29;97044.88;4890474;29;20053;-76
2023/05/25 01:36:01;;;;;;;9.85;4.25;;;;;;;12.01;52.28;97040.38;4890395;29;20088;-76
2023/05/25 01:38:28;;;;;;;10.85;4.38;;;;;;;11.94;52.46;97040.28;4881305;29;20501;-76
2023/05/25 01:40:56;;;;;;;12.43;4.32;;;;;;;11.90;52.62;97034.59;4880622;29;20081;-76
2023/05/25 01:43:23;;;;;;;8.38;4.45;;;;;;;11.87;52.81;97034.94;4880116;29;20060;-76
2023/05/25 01:46:02;;;;;;;11.95;3.50;;;;;;;11.89;53.44;97042.63;4880087;29;20676;-76
2023/05/25 01:48:37;;;;;;;10.32;4.00;;;;;;;11.92;53.03;97040.47;4880324;29;20049;-76
2023/05/25 01:51:14;;;;;;;8.15;3.92;;;;;;;11.90;52.63;97039.81;4880409;29;20115;-76
2023/05/25 01:53:45;;;;;;;9.50;4.30;;;;;;;11.86;52.64;97038.53;4880238;29;20176;-76
2023/05/25 01:56:14;;;;;;;11.93;4.72;;;;;;;11.84;52.72;97035.28;4879834;29;20057;-76
2023/05/25 01:58:43;;;;;;;8.13;4.05;;;;;;;11.82;52.92;97028.63;4880244;29;20243;-76
2023/05/25 02:01:14;;;;;;;12.38;4.75;;;;;;;11.81;52.88;97037.47;4880172;29;20045;-76
2023/05/25 02:03:43;;;;;;;9.05;4.30;;;;;;;11.80;53.05;97034.00;4880039;29;20104;-76
2023/05/25 02:06:12;;;;;;;10.25;4.55;;;;;;;11.77;53.02;97026.53;4879809;29;20426;-76
2023/05/25 02:08:40;;;;;;;9.07;4.20;;;;;;;11.76;53.17;97037.97;4879796;29;20562;-75
2023/05/25 02:11:07;;;;;;;9.85;4.35;;;;;;;11.75;53.31;97028.50;4879980;29;20474;-76
2023/05/25 02:13:35;;;;;;;11.38;4.65;;;;;;;11.77;53.73;97029.16;4879914;29;20502;-76
2023/05/25 02:16:03;;;;;;;12.82;5.05;;;;;;;11.77;53.77;97028.34;4880600;29;20049;-77
2023/05/25 02:18:30;;;;;;;9.75;4.50;;;;;;;11.79;54.30;97032.41;4880202;29;20053;-76
2023/05/25 02:20:58;;;;;;;9.43;4.05;;;;;;;11.83;54.03;97030.22;4880077;29;20053;-76
2023/05/25 02:23:27;;;;;;;8.48;4.32;;;;;;;11.79;54.21;97021.13;4880028;29;20120;-76
2023/05/25 02:25:54;;;;;;;12.32;5.03;;;;;;;11.78;54.27;97022.13;4879628;29;20158;-75
2023/05/25 02:28:22;;;;;;;10.88;4.97;;;;;;;11.77;54.19;97020.50;4879618;29;20462;-74
2023/05/25 02:30:50;;;;;;;10.13;4.05;;;;;;;11.75;55.07;97020.69;4879490;29;20081;-74
2023/05/25 02:33:19;;;;;;;11.57;4.93;;;;;;;11.77;54.64;97016.09;4879523;29;20081;-74
2023/05/25 02:35:46;;;;;;;8.35;4.03;;;;;;;11.78;55.58;97020.31;4879361;29;20057;-74
2023/05/25 02:38:14;;;;;;;14.02;4.15;;;;;;;11.83;56.00;97015.38;4879482;29;20057;-74
2023/05/25 02:40:45;;;;;;;13.10;4.38;;;;;;;11.93;55.19;97021.16;4879563;29;20052;-74
2023/05/25 02:43:13;;;;;;;10.90;4.25;;;;;;;11.97;55.58;97026.03;4879138;29;20105;-76
2023/05/25 02:45:40;;;;;;;9.90;5.15;;;;;;;11.93;54.64;97022.97;4879439;29;20192;-74
2023/05/25 02:48:08;;;;;;;7.57;3.80;;;;;;;11.86;55.68;97020.22;4879232;29;20501;-74
2023/05/25 02:50:36;;;;;;;9.65;4.88;;;;;;;11.83;55.13;97025.00;4879460;29;20637;-74
2023/05/25 02:53:04;;;;;;;13.68;4.95;;;;;;;11.76;54.87;97024.91;4879150;29;20116;-74
2023/05/25 02:55:32;;;;;;;11.68;4.75;;;;;;;11.71;54.99;97029.84;4879024;29;20076;-74
2023/05/25 02:58:01;;;;;;;9.38;4.80;;;;;;;11.63;54.97;97033.38;4879173;29;20438;-74
2023/05/25 03:00:28;;;;;;;10.10;4.35;;;;;;;11.59;55.50;97033.88;4879064;29;20049;-74
2023/05/25 03:02:56;;;;;;;15.05;5.35;;;;;;;11.50;55.32;97036.59;4878715;29;20080;-74
2023/05/25 03:05:23;;;;;;;12.65;4.45;;;;;;;11.43;55.63;97032.22;4878827;29;20052;-74
2023/05/25 03:07:51;;;;;;;7.97;4.88;;;;;;;11.44;57.61;97039.09;4879069;29;20080;-74
2023/05/25 03:10:19;;;;;;;13.95;4.53;;;;;;;11.49;57.42;97034.94;4878867;29;20064;-76
2023/05/25 03:12:47;;;;;;;12.23;5.90;;;;;;;11.50;56.12;97039.19;4878866;29;20494;-73
2023/05/25 03:15:16;;;;;;;12.68;4.90;;;;;;;11.44;56.22;97029.44;4878796;29;20579;-74
2023/05/25 03:17:43;;;;;;;11.45;5.13;;;;;;;11.36;56.02;97031.31;4879010;29;20112;-74
2023/05/25 03:20:14;;;;;;;8.98;4.65;;;;;;;11.30;57.47;97036.28;4878991;29;20140;-74
2023/05/25 03:22:41;;;;;;;13.18;4.88;;;;;;;11.26;56.56;97036.75;4878692;29;20053;-74
2023/05/25 03:25:11;;;;;;;9.60;5.28;;;;;;;11.23;56.55;97047.56;4878444;29;20147;-74
2023/05/25 03:27:38;;;;;;;8.80;4.75;;;;;;;11.17;56.81;97049.06;4878546;29;20141;-74
2023/05/25 03:30:08;;;;;;;8.02;4.65;;;;;;;11.13;57.80;97035.56;4878368;29;20045;-74
2023/05/25 03:32:36;;;;;;;12.35;5.88;;;;;;;11.12;57.02;97046.97;4878650;29;20490;-74
2023/05/25 03:35:05;;;;;;;10.35;4.80;;;;;;;11.09;57.00;97041.31;4878390;29;20049;-74
2023/05/25 03:37:33;;;;;;;13.40;5.53;;;;;;;11.04;57.06;97044.44;4878389;29;20053;-74
2023/05/25 03:40:01;;;;;;;9.23;5.00;;;;;;;10.98;57.17;97042.53;4882076;29;20557;-74
2023/05/25 03:42:28;;;;;;;11.00;5.15;;;;;;;10.97;57.27;97045.31;4881041;29;20101;-74
2023/05/25 03:44:56;;;;;;;14.02;5.22;;;;;;;10.93;57.26;97042.22;4884432;29;20053;-74
2023/05/25 03:47:23;;;;;;;15.45;6.43;;;;;;;10.94;57.64;97043.84;4878520;29;20053;-74
2023/05/25 03:49:52;;;;;;;10.38;5.40;;;;;;;10.93;57.55;97045.66;4878233;29;20055;-73
2023/05/25 03:52:20;;;;;;;13.85;5.05;;;;;;;10.92;57.52;97049.25;4878132;29;20111;-74
2023/05/25 03:54:48;;;;;;;9.05;4.68;;;;;;;10.92;58.04;97051.84;4878325;29;20056;-74
2023/05/25 03:57:16;;;;;;;12.77;4.78;;;;;;;10.94;57.80;97049.06;4878311;29;20101;-74
2023/05/25 03:59:44;;;;;;;14.25;5.75;;;;;;;10.94;57.73;97049.06;4878352;29;20132;-74
2023/05/25 04:02:11;;;;;;;11.32;6.40;;;;;;;10.95;57.94;97055.09;4878374;29;20053;-74
2023/05/25 04:04:40;;;;;;;14.55;5.78;;;;;;;10.92;57.74;97049.25;4880030;29;20056;-74
2023/05/25 04:07:09;;;;;;;12.32;5.65;;;;;;;10.85;57.89;97065.78;4882046;29;20053;-74
2023/05/25 04:09:37;;;;;;;10.02;5.40;;;;;;;10.80;58.00;97055.03;4881857;29;20053;-74
2023/05/25 04:12:05;;;;;;;11.57;5.45;;;;;;;10.74;58.22;97055.72;4882189;29;20061;-74
2023/05/25 04:14:32;;;;;;;11.95;5.72;;;;;;;10.70;58.36;97057.84;4881915;29;20446;-74
2023/05/25 04:17:00;;;;;;;9.35;5.38;;;;;;;10.68;58.56;97062.44;4882236;29;20061;-76
2023/05/25 04:19:27;;;;;;;12.75;6.43;;;;;;;10.67;58.74;97056.41;4881847;29;20509;-77
2023/05/25 04:21:55;;;;;;;8.80;5.18;;;;;;;10.68;58.72;97060.63;4881826;29;20053;-74
2023/05/25 04:24:24;;;;;;;9.55;5.15;;;;;;;10.70;58.85;97068.28;4881426;29;20105;-74
2023/05/25 04:26:52;;;;;;;15.55;5.85;;;;;;;10.70;58.87;97063.06;4882032;29;20049;-74
2023/05/25 04:29:20;;;;;;;13.20;6.20;;;;;;;10.68;58.89;97071.06;4881960;29;20488;-74
2023/05/25 04:31:48;;;;;;;11.82;5.40;;;;;;;10.68;59.44;97071.06;4889809;29;20057;-74
2023/05/25 04:34:16;;;;;;;10.00;5.63;;;;;;;10.69;59.26;97066.66;4892329;29;20053;-73
2023/05/25 04:36:44;;;;;;;12.85;5.25;;;;;;;10.67;59.24;97074.66;4884348;29;20113;-73
2023/05/25 04:39:11;;;;;;;10.88;5.13;;;;;;;10.64;59.15;97064.56;4882096;29;20060;-74
2023/05/25 04:41:41;;;;;;;14.40;6.15;;;;;;;10.64;59.39;97068.97;4881769;29;20124;-74
2023/05/25 04:44:09;;;;;;;12.57;5.82;;;;;;;10.65;59.48;97070.59;4881771;29;20109;-74
2023/05/25 04:46:37;;;;;;;11.65;5.60;;;;;;;10.66;59.38;97072.22;4881281;29;20091;-75
2023/05/25 04:49:07;;;;;;;13.15;6.03;;;;;;;10.66;59.62;97073.03;4881842;29;20348;-75
2023/05/25 04:51:35;;;;;;;18.90;10.50;;;;;;;10.71;59.98;97069.91;4878179;29;20436;-74
2023/05/25 04:54:03;;;;;;;13.25;6.78;;;;;;;10.72;59.79;97072.34;4880889;29;20053;-75
2023/05/25 04:56:31;;;;;;;14.77;6.70;;;;;;;10.69;59.72;97077.94;4881109;29;20057;-75
2023/05/25 04:59:00;;;;;;;11.38;5.88;;;;;;;10.68;59.95;97076.28;4881463;29;20139;-75
2023/05/25 05:01:27;;;;;;;12.45;6.25;;;;;;;10.69;60.21;97080.53;4881255;29;20104;-76
2023/05/25 05:03:55;;;;;;;15.10;6.43;;;;;;;10.67;60.05;97074.66;4880997;29;20552;-74
2023/05/25 05:06:24;;;;;;;22.25;6.60;;;;;;;10.66;60.02;97080.84;4881171;29;20113;-75
2023/05/25 05:08:52;;;;;;;14.20;6.18;;;;;;;10.62;60.50;97089.19;4881160;29;20057;-75
2023/05/25 05:11:19;;;;;;;10.88;6.07;;;;;;;10.61;60.81;97091.00;4880944;29;20589;-75
2023/05/25 05:13:47;;;;;;;10.80;5.75;;;;;;;10.63;60.80;97094.25;4882075;29;20056;-75
2023/05/25 05:16:16;;;;;;;16.10;6.40;;;;;;;10.69;60.75;97087.53;4880416;29;20055;-75
2023/05/25 05:18:43;;;;;;;12.48;5.72;;;;;;;10.74;60.93;97097.47;4881110;29;20135;-75
2023/05/25 05:21:11;;;;;;;12.25;5.95;;;;;;;10.80;60.78;97096.78;4880796;29;20516;-75
2023/05/25 05:23:39;;;;;;;11.48;6.18;;;;;;;10.84;60.80;97098.06;4880714;29;20083;-75
2023/05/25 05:26:09;;;;;;;11.80;6.40;;;;;;;10.85;60.69;97108.34;4880475;29;20049;-75
2023/05/25 05:28:37;;;;;;;14.88;5.95;;;;;;;10.88;60.68;97109.78;4877928;29;20053;-75
2023/05/25 05:31:05;;;;;;;11.07;6.35;;;;;;;10.89;60.70;97114.84;4878131;29;20057;-75
2023/05/25 05:33:34;;;;;;;11.50;5.82;;;;;;;10.94;60.71;97114.31;4880248;29;20059;-76
2023/05/25 05:36:03;;;;;;;10.80;5.85;;;;;;;10.97;60.57;97110.56;4879766;29;20470;-75
2023/05/25 05:38:31;;;;;;;11.48;5.82;;;;;;;11.00;60.59;97112.81;4862217;29;20106;-75
2023/05/25 05:40:58;;;;;;;13.43;5.78;;;;;;;11.02;60.73;97113.47;4867371;29;20425;-75
2023/05/25 05:43:26;;;;;;;21.00;8.18;;;;;;;11.04;60.62;97120.16;4880044;29;20160;-76
2023/05/25 05:45:54;;;;;;;14.55;6.63;;;;;;;11.08;60.82;97124.03;4879684;29;20462;-76
2023/05/25 05:48:21;;;;;;;16.10;6.72;;;;;;;11.11;60.69;97126.31;4880407;29;20049;-76
2023/05/25 05:50:51;;;;;;;13.50;6.47;;;;;;;11.13;60.68;97124.34;4880419;29;20053;-78
2023/05/25 05:53:19;;;;;;;11.60;6.30;;;;;;;11.16;60.71;97114.53;4879944;29;20056;-76
2023/05/25 05:55:47;;;;;;;12.75;6.18;;;;;;;11.12;60.42;97114.88;4875609;29;20139;-75
2023/05/25 05:58:18;;;;;;;14.68;6.28;;;;;;;11.12;60.68;97119.28;4860982;29;20053;-78
2023/05/25 06:00:45;;;;;;;9.77;5.50;;;;;;;11.14;60.70;97122.53;4860620;29;20053;-78
2023/05/25 06:03:13;;;;;;;14.27;6.40;;;;;;;11.17;60.69;97124.78;4860376;29;20136;-78
2023/05/25 06:05:41;;;;;;;14.38;6.68;;;;;;;11.19;60.79;97125.44;4860109;29;20613;-75
2023/05/25 06:08:10;;;;;;;12.20;6.40;;;;;;;11.21;60.78;97122.66;4862038;29;20061;-76
2023/05/25 06:10:38;;;;;;;12.23;6.72;;;;;;;11.25;60.84;97139.63;4862203;29;20084;-75
2023/05/25 06:13:06;;;;;;;9.70;6.28;;;;;;;11.29;60.99;97135.69;4862306;29;20049;-76
2023/05/25 06:15:34;;;;;;;17.35;6.97;;;;;;;11.35;60.85;97135.00;4863206;29;20053;-76
2023/05/25 06:18:02;;;;;;;10.60;6.25;;;;;;;11.43;60.99;97136.72;4861566;29;20125;-76
2023/05/25 06:20:30;;;;;;;13.55;6.57;;;;;;;11.49;60.64;97147.28;4861339;29;20053;-76
2023/05/25 06:22:57;;;;;;;14.77;6.53;;;;;;;11.55;60.68;97145.78;4860941;29;20529;-76
2023/05/25 06:25:26;;;;;;;10.80;5.65;;;;;;;11.66;60.66;97147.19;4861243;29;20426;-75
2023/05/25 06:27:54;;;;;;;11.65;5.75;;;;;;;11.72;60.20;97147.28;4860571;29;20050;-76
2023/05/25 06:30:22;;;;;;;12.88;6.07;;;;;;;11.83;60.12;97148.69;4861210;29;20045;-75
2023/05/25 06:32:49;;;;;;;16.20;8.35;;;;;;;11.90;60.36;97148.81;4861232;29;20141;-75
2023/05/25 06:35:18;;;;;;;21.50;6.72;;;;;;;12.00;60.27;97149.38;4860736;29;20057;-75
2023/05/25 06:37:47;;;;;;;13.48;6.75;;;;;;;12.08;59.91;97153.72;4861202;29;20093;-76
2023/05/25 06:40:15;;;;;;;14.93;5.60;;;;;;;12.15;60.38;97158.06;4861126;29;20054;-75
2023/05/25 06:42:44;;;;;;;9.82;5.72;;;;;;;12.27;59.67;97155.84;4860776;29;20141;-75
2023/05/25 06:45:13;;;;;;;15.13;6.32;;;;;;;12.34;59.30;97164.59;4860782;29;20049;-75
2023/05/25 06:47:40;;;;;;;11.30;6.15;;;;;;;12.40;59.43;97164.84;4860837;29;20058;-76
2023/05/25 06:50:09;;;;;;;11.98;5.82;;;;;;;12.45;59.08;97168.56;4860630;29;20514;-75
2023/05/25 06:52:36;;;;;;;12.57;6.55;;;;;;;12.51;59.27;97167.03;4860812;29;20054;-75
2023/05/25 06:55:09;;;;;;;12.73;7.28;;;;;;;12.56;59.43;97170.72;4974604;23;20060;-81
2023/05/25 06:57:42;;;;;;;16.63;6.55;;;;;;;12.63;59.28;97170.81;4904782;29;20041;-81
2023/05/25 07:00:23;;;;;;;10.65;6.22;;;;;;;12.69;60.26;97175.34;4905049;29;20044;-81
2023/05/25 07:03:04;;;;;;;14.10;6.60;;;;;;;12.76;59.55;97181.47;4904478;29;20063;-81
2023/05/25 07:05:43;;;;;;;12.57;6.47;;;;;;;12.86;58.86;97180.41;4889247;29;20071;-81
2023/05/25 07:08:17;;;;;;;14.02;6.55;;;;;;;12.93;58.50;97183.91;4904529;29;20033;-81
2023/05/25 07:10:58;;;;;;;14.55;6.85;;;;;;;12.96;58.00;97180.91;4904664;29;20041;-81
2023/05/25 07:13:35;;;;;;;14.90;6.53;;;;;;;12.97;58.27;97182.56;4904591;29;20037;-80
2023/05/25 07:16:08;;;;;;;19.08;7.53;;;;;;;13.01;57.68;97178.59;4888688;29;20037;-81
2023/05/25 07:19:10;;;;;;;11.98;5.93;;;;;;;13.06;58.19;97176.22;4904047;29;20037;-82
2023/05/25 07:21:47;;;;;;;18.40;6.35;;;;;;;13.16;58.43;97174.13;4904723;29;20032;-82
2023/05/25 07:37:47;;;;;;;15.73;6.95;;;;;;;13.92;56.52;97178.94;4902037;29;20081;-79
2023/05/25 07:40:25;;;;;;;15.60;6.57;;;;;;;14.07;56.50;97178.06;4904054;29;20040;-79
2023/05/25 07:43:06;;;;;;;13.45;7.30;;;;;;;14.20;56.41;97173.72;4904297;29;20093;-81
2023/05/25 07:45:42;;;;;;;14.30;6.00;;;;;;;14.33;56.47;97178.28;4889937;29;20065;-81
2023/05/25 07:48:13;;;;;;;13.15;6.45;;;;;;;14.46;55.73;97174.94;4913670;23;20121;-76
2023/05/25 07:50:41;;;;;;;11.10;6.68;;;;;;;14.57;55.86;97171.00;4878178;29;20068;-76
2023/05/25 07:53:10;;;;;;;15.70;6.13;;;;;;;14.70;55.38;97180.75;4878201;29;20093;-76
2023/05/25 07:55:37;;;;;;;15.82;6.60;;;;;;;14.80;55.05;97171.53;4878105;29;20060;-77
2023/05/25 07:58:06;;;;;;;10.40;6.20;;;;;;;14.90;55.28;97180.88;4878531;29;20136;-77
2023/05/25 08:00:34;;;;;;;13.93;6.20;;;;;;;14.98;55.08;97171.00;4878347;29;20057;-76
2023/05/25 08:03:02;;;;;;;13.23;6.00;;;;;;;15.09;54.88;97171.47;4878813;29;20053;-77
2023/05/25 08:05:30;;;;;;;12.93;6.43;;;;;;;15.22;55.11;97176.75;4878077;29;20053;-77
2023/05/25 08:07:57;;;;;;;13.85;6.95;;;;;;;15.35;54.86;97178.59;4878291;29;20136;-77
2023/05/25 08:10:30;;;;;;;11.02;6.60;;;;;;;15.45;54.01;97174.59;4878327;29;20053;-77
2023/05/25 08:12:59;;;;;;;14.63;5.88;;;;;;;15.55;54.02;97161.06;4881284;29;20433;-77
2023/05/25 08:15:28;;;;;;;10.88;6.22;;;;;;;15.63;54.44;97158.25;4880109;29;20083;-78
2023/05/25 08:17:56;;;;;;;14.63;6.70;;;;;;;15.77;53.65;97168.84;4880446;29;20068;-76
2023/05/25 08:20:24;;;;;;;11.93;6.43;;;;;;;15.91;54.02;97170.44;4879468;29;20053;-76
2023/05/25 08:22:53;;;;;;;13.13;6.00;;;;;;;16.04;53.12;97175.72;4879909;29;20060;-77
2023/05/25 08:25:21;;;;;;;11.27;5.88;;;;;;;16.19;52.78;97172.09;4880652;29;20056;-76
2023/05/25 08:27:50;;;;;;;11.95;6.30;;;;;;;16.32;52.31;97177.34;4879312;29;20056;-76
2023/05/25 08:30:17;;;;;;;9.80;5.18;;;;;;;16.46;52.25;97173.69;4879636;29;20124;-77
2023/05/25 08:32:45;;;;;;;9.95;5.68;;;;;;;16.60;52.25;97171.03;4880593;29;20073;-76
2023/05/25 08:35:13;;;;;;;10.35;5.80;;;;;;;16.75;52.03;97182.13;4880728;29;20052;-77
2023/05/25 08:37:42;;;;;;;9.25;5.43;;;;;;;16.93;51.73;97178.06;4878763;29;20108;-77
2023/05/25 08:40:14;;;;;;;10.38;6.13;;;;;;;17.06;50.82;97173.56;4877454;29;20059;-77
2023/05/25 08:42:42;;;;;;;;;;;;;;;17.16;51.34;97178.38;4878253;29;20132;-77
2023/05/25 08:45:11;;;;;;;9.13;5.70;;;;;;;17.23;50.33;97173.91;4879378;29;19928;-77
2023/05/25 08:48:01;;;;;;;11.60;5.75;;;;;;;17.33;50.25;97177.91;4880015;29;20137;-77
2023/05/25 08:50:31;;;;;;;14.82;5.55;;;;;;;17.41;50.29;97182.94;4880526;29;20089;-76
2023/05/25 08:53:05;;;;;;;7.45;5.53;;;;;;;17.45;50.59;97181.50;4882938;29;20045;-77
2023/05/25 08:55:36;;;;;;;11.07;6.60;;;;;;;17.49;50.59;97183.50;4883202;29;20052;-78
2023/05/25 08:58:10;;;;;;;11.32;5.35;;;;;;;17.55;50.71;97186.31;4884426;29;20053;-76
2023/05/25 09:00:44;;;;;;;9.77;5.85;;;;;;;17.58;49.78;97181.44;4885718;29;20052;-76
2023/05/25 09:03:17;;;;;;;16.10;6.15;;;;;;;17.62;50.32;97177.34;4882810;29;20056;-76
2023/05/25 09:05:46;;;;;;;10.00;5.72;;;;;;;17.68;50.52;97184.38;4883538;29;20057;-76
2023/05/25 09:08:14;;;;;;;12.63;6.18;;;;;;;17.78;50.55;97180.50;4883561;29;20095;-76
2023/05/25 09:10:44;;;;;;;10.00;5.72;;;;;;;17.89;50.43;97185.13;4882901;29;20057;-77
2023/05/25 09:13:12;;;;;;;11.30;6.10;;;;;;;17.97;49.67;97179.56;4882308;29;20136;-76
2023/05/25 09:15:51;;;;;;;12.00;6.70;;;;;;;18.02;49.55;97178.94;4883170;29;20053;-76
2023/05/25 09:18:19;;;;;;;10.10;5.20;;;;;;;18.08;50.44;97188.63;4883849;29;20084;-77
2023/05/25 09:20:48;;;;;;;15.25;5.85;;;;;;;18.15;49.86;97191.22;4883444;29;20108;-76
2023/05/25 09:23:17;;;;;;;10.88;6.07;;;;;;;18.18;49.84;97186.31;4885888;29;20082;-77
2023/05/25 09:25:46;;;;;;;11.45;6.60;;;;;;;18.19;49.43;97198.50;4882830;29;20132;-77
2023/05/25 09:28:13;;;;;;;12.75;7.28;;;;;;;18.20;49.35;97186.91;4882774;29;20088;-76
2023/05/25 09:30:44;;;;;;;10.95;6.38;;;;;;;18.25;49.64;97189.69;4882878;29;20164;-77
2023/05/25 09:33:16;;;;;;;10.05;6.55;;;;;;;18.29;49.56;97190.09;4883044;29;20053;-77
2023/05/25 09:35:45;;;;;;;14.50;6.75;;;;;;;18.34;49.61;97182.31;4882757;29;20092;-76
2023/05/25 09:38:14;;;;;;;14.40;7.07;;;;;;;18.38;49.94;97204.63;4883415;29;20084;-77
2023/05/25 09:40:43;;;;;;;7.65;5.45;;;;;;;18.44;49.48;97197.69;4882506;29;20134;-77
2023/05/25 09:43:12;;;;;;;10.00;6.55;;;;;;;18.47;49.87;97195.41;4884869;29;20095;-77
2023/05/25 09:45:52;;;;;;;11.23;6.35;;;;;;;18.55;49.46;97193.53;4885403;29;20437;-76
2023/05/25 09:48:21;;;;;;;10.18;6.63;;;;;;;18.61;50.53;97196.09;4882883;29;20068;-76
2023/05/25 09:50:49;;;;;;;8.93;6.20;;;;;;;18.71;50.42;97196.38;4882603;29;20139;-77
2023/05/25 09:53:17;;;;;;;10.52;6.13;;;;;;;18.82;49.67;97197.53;4881738;29;20049;-77
2023/05/25 09:55:48;;;;;;;9.80;6.57;;;;;;;18.91;49.29;97190.13;4882896;29;20060;-77
2023/05/25 09:58:23;;;;;;;17.40;6.35;;;;;;;19.00;49.13;97198.56;4881557;29;20049;-77
2023/05/25 10:00:54;;;;;;;10.38;5.90;;;;;;;19.05;48.45;97188.97;4881978;29;20684;-77
2023/05/25 10:03:23;;;;;;;8.57;5.60;;;;;;;19.14;49.02;97186.81;4883619;29;20147;-77
2023/05/25 10:05:52;;;;;;;8.40;6.13;;;;;;;19.23;49.36;97193.41;4884949;29;20052;-77
2023/05/25 10:08:22;;;;;;;11.55;6.15;;;;;;;19.34;48.40;97202.44;4881918;29;20060;-77
2023/05/25 10:10:50;;;;;;;13.60;6.05;;;;;;;19.35;47.69;97204.88;4881961;29;20478;-77
2023/05/25 10:13:20;;;;;;;10.40;5.82;;;;;;;19.37;47.86;97201.19;4881957;29;20105;-77
2023/05/25 10:15:51;;;;;;;9.68;5.95;;;;;;;19.38;48.12;97200.16;4882175;29;20430;-76
2023/05/25 10:18:25;;;;;;;10.80;6.10;;;;;;;19.42;47.56;97198.69;4882412;29;20140;-76
2023/05/25 10:21:00;;;;;;;11.73;5.65;;;;;;;19.46;47.19;97199.84;4882191;29;20057;-77
2023/05/25 10:23:35;;;;;;;12.05;6.05;;;;;;;19.51;47.56;97197.34;4882362;29;20425;-76
2023/05/25 10:26:06;;;;;;;9.77;6.13;;;;;;;19.54;46.47;97196.88;4883702;29;20053;-77
2023/05/25 10:28:37;;;;;;;8.32;5.85;;;;;;;19.58;47.30;97195.41;4883247;29;20081;-75
2023/05/25 10:31:05;;;;;;;9.90;6.00;;;;;;;19.61;46.70;97199.44;4882425;29;20091;-77
2023/05/25 10:33:37;;;;;;;10.77;6.05;;;;;;;19.61;46.98;97202.91;4882048;29;20045;-76
2023/05/25 10:36:06;;;;;;;10.07;6.30;;;;;;;19.61;46.80;97202.91;4881313;29;20081;-77
2023/05/25 10:38:39;;;;;;;12.35;6.07;;;;;;;19.66;48.35;97202.25;4881384;29;20589;-76
2023/05/25 10:41:09;;;;;;;11.45;6.15;;;;;;;19.71;46.93;97208.50;4881902;29;20080;-77
2023/05/25 10:43:38;;;;;;;10.80;5.65;;;;;;;19.75;47.44;97204.38;4881726;29;20128;-77
2023/05/25 10:46:06;;;;;;;8.30;5.35;;;;;;;19.85;46.97;97214.41;4881864;29;20431;-78
2023/05/25 10:48:39;;;;;;;9.30;6.10;;;;;;;19.90;45.38;97208.44;4880499;29;20549;-77
2023/05/25 10:51:07;;;;;;;9.38;6.07;;;;;;;19.89;45.82;97201.53;4882147;29;20057;-77
2023/05/25 10:53:38;;;;;;;9.18;5.97;;;;;;;19.89;45.58;97204.97;4879668;29;20057;-77
2023/05/25 10:56:09;;;;;;;12.57;5.95;;;;;;;19.89;45.77;97212.13;4879479;29;20053;-77
2023/05/25 10:58:41;;;;;;;8.30;5.57;;;;;;;19.91;46.08;97212.69;4879737;29;20485;-75
2023/05/25 11:01:11;;;;;;;10.95;5.97;;;;;;;19.91;45.49;97204.75;4880248;29;20135;-75
2023/05/25 11:03:53;;;;;;;11.48;6.03;;;;;;;19.89;45.36;97209.47;4878982;29;20478;-75
2023/05/25 11:06:22;;;;;;;11.30;5.53;;;;;;;19.88;45.71;97210.50;4879428;29;20085;-75
2023/05/25 11:08:53;;;;;;;14.02;6.18;;;;;;;19.90;45.19;97208.44;4878513;29;20148;-74
2023/05/25 11:11:22;;;;;;;10.57;5.78;;;;;;;19.89;45.63;97198.88;4878602;29;20095;-75
2023/05/25 11:13:50;;;;;;;8.40;5.85;;;;;;;19.91;45.68;97202.09;4878485;29;20109;-77
2023/05/25 11:16:23;;;;;;;7.95;5.70;;;;;;;19.89;45.82;97201.53;4879612;29;20048;-75
2023/05/25 11:18:56;;;;;;;9.40;5.50;;;;;;;19.91;45.76;97204.75;4878566;29;20112;-75
2023/05/25 11:21:42;;;;;;;8.45;5.68;;;;;;;19.94;45.94;97204.28;4878754;29;20056;-75
2023/05/25 11:24:15;;;;;;;14.18;6.45;;;;;;;20.01;46.07;97188.34;4878563;29;20064;-74
2023/05/25 11:26:54;;;;;;;11.07;5.38;;;;;;;20.06;45.80;97197.19;4878637;29;20109;-75
2023/05/25 11:29:25;;;;;;;11.48;5.35;;;;;;;20.10;45.71;97192.25;4878492;29;20057;-75
2023/05/25 11:31:54;;;;;;;9.65;5.45;;;;;;;20.16;46.62;97194.81;4878336;29;20466;-75
2023/05/25 11:34:24;;;;;;;12.32;5.82;;;;;;;20.19;45.19;97198.03;4877852;29;20049;-76
2023/05/25 11:37:00;;;;;;;12.73;6.20;;;;;;;20.17;45.24;97190.31;4878577;29;20287;-75
2023/05/25 11:39:28;;;;;;;7.25;5.40;;;;;;;20.23;45.42;97193.91;4878672;29;20117;-77
2023/05/25 11:42:01;;;;;;;10.30;5.82;;;;;;;20.31;45.96;97188.22;4878843;29;20049;-77
2023/05/25 11:44:30;;;;;;;11.18;6.47;;;;;;;20.39;45.45;97195.84;4877992;29;20060;-75
2023/05/25 11:47:01;;;;;;;9.00;4.95;;;;;;;20.44;44.95;97193.31;4878083;29;20139;-75
2023/05/25 11:49:30;;;;;;;13.80;5.83;;;;;;;20.48;45.72;97188.38;4877932;29;20104;-74
2023/05/25 11:51:58;;;;;;;12.52;5.38;;;;;;;20.51;45.11;97185.25;4877789;29;20313;-75
2023/05/25 11:54:27;;;;;;;11.85;5.85;;;;;;;20.54;44.90;97192.75;4877748;29;20417;-75
2023/05/25 11:56:58;;;;;;;7.95;5.68;;;;;;;20.54;44.75;97182.94;4877870;29;20057;-75
2023/05/25 11:59:26;;;;;;;11.45;6.40;;;;;;;20.58;44.97;97183.34;4878028;29;20131;-75
2023/05/25 12:01:59;;;;;;;11.55;6.13;;;;;;;20.62;44.29;97181.84;4877790;29;20136;-75
2023/05/25 12:04:26;;;;;;;15.60;5.90;;;;;;;20.65;44.63;97178.72;4877488;29;20512;-75
2023/05/25 12:07:03;;;;;;;10.35;5.28;;;;;;;20.73;44.74;97180.22;4877775;29;20048;-75
2023/05/25 12:09:31;;;;;;;11.05;5.95;;;;;;;20.80;44.95;97170.28;4877872;29;20061;-75
2023/05/25 12:11:59;;;;;;;9.60;4.88;;;;;;;20.84;43.95;97170.59;4877744;29;20055;-75
2023/05/25 12:14:27;;;;;;;7.57;4.65;;;;;;;20.89;45.20;97168.88;4877323;29;20061;-74
2023/05/25 12:16:55;;;;;;;8.88;5.10;;;;;;;20.97;44.49;97176.47;4877591;29;20114;-77
2023/05/25 12:19:23;;;;;;;12.68;5.13;;;;;;;20.99;43.91;97169.09;4877997;29;20052;-77
2023/05/25 12:21:50;;;;;;;12.02;5.18;;;;;;;21.04;44.58;97172.91;4877894;29;20487;-77
2023/05/25 12:24:20;;;;;;;6.38;4.82;;;;;;;21.11;44.43;97170.91;4877583;29;20451;-75
2023/05/25 12:26:48;;;;;;;9.15;4.68;;;;;;;21.16;44.28;97163.84;4881414;29;20080;-75
2023/05/25 12:29:16;;;;;;;8.57;4.70;;;;;;;21.19;43.48;97160.75;4881040;29;20057;-75
2023/05/25 12:31:44;;;;;;;7.13;4.20;;;;;;;21.18;43.74;97155.66;4881288;29;20581;-75
2023/05/25 12:34:12;;;;;;;8.40;4.80;;;;;;;21.22;44.19;97164.75;4881304;29;20059;-75